createdAt,value
2023-02-12T00:01:10.124Z,14.77
2023-02-12T00:03:38.434Z,13.60
2023-02-12T00:06:07.194Z,17.63
2023-02-12T00:08:36.561Z,15.63
2023-02-12T00:11:09.575Z,13.63
2023-02-12T00:13:38.304Z,14.63
2023-02-12T00:16:08.372Z,14.80
2023-02-12T00:18:37.042Z,14.17
2023-02-12T00:21:06.073Z,14.63
2023-02-12T00:23:34.015Z,13.53
2023-02-12T00:26:06.823Z,14.43
2023-02-12T00:28:34.945Z,14.47
2023-02-12T00:31:07.005Z,15.93
2023-02-12T00:33:35.319Z,15.07
2023-02-12T00:36:05.294Z,16.07
2023-02-12T00:38:33.351Z,14.83
2023-02-12T00:41:01.220Z,14.83
2023-02-12T00:43:30.483Z,15.30
2023-02-12T00:45:58.711Z,15.50
2023-02-12T00:48:26.857Z,13.10
2023-02-12T00:50:54.680Z,15.90
2023-02-12T00:53:22.561Z,13.13
2023-02-12T00:55:50.482Z,13.33
2023-02-12T00:58:19.084Z,14.53
2023-02-12T01:00:48.496Z,15.43
2023-02-12T01:03:17.083Z,15.20
2023-02-12T01:05:45.340Z,16.17
2023-02-12T01:08:13.777Z,15.57
2023-02-12T01:10:42.007Z,16.20
2023-02-12T01:13:12.653Z,13.57
2023-02-12T01:15:40.769Z,14.10
2023-02-12T01:18:10.256Z,17.33
2023-02-12T01:20:38.348Z,14.97
2023-02-12T01:23:08.523Z,15.40
2023-02-12T01:25:36.504Z,15.73
2023-02-12T01:28:04.559Z,17.90
2023-02-12T01:30:32.466Z,14.37
2023-02-12T01:33:00.663Z,17.77
2023-02-12T01:35:29.986Z,16.43
2023-02-12T01:37:59.104Z,15.60
2023-02-12T01:40:27.040Z,15.77
2023-02-12T01:42:54.870Z,13.87
2023-02-12T01:45:56.353Z,15.97
2023-02-12T01:48:28.437Z,14.07
2023-02-12T01:50:58.935Z,15.93
2023-02-12T01:53:31.123Z,15.07
2023-02-12T01:56:02.050Z,14.30
2023-02-12T01:58:36.076Z,14.93
2023-02-12T02:01:05.886Z,15.30
2023-02-12T02:03:35.285Z,15.13
2023-02-12T02:06:09.885Z,14.07
2023-02-12T02:08:39.224Z,20.80
2023-02-12T02:11:27.082Z,14.97
2023-02-12T02:14:13.036Z,16.43
2023-02-12T02:16:47.120Z,18.07
2023-02-12T02:19:31.529Z,19.10
2023-02-12T02:22:24.028Z,17.90
2023-02-12T02:25:26.143Z,18.67
2023-02-12T02:28:09.327Z,18.77
2023-02-12T02:30:46.194Z,20.83
2023-02-12T02:33:23.442Z,18.37
2023-02-12T02:35:56.941Z,18.53
2023-02-12T02:38:31.779Z,21.40
2023-02-12T02:41:05.942Z,20.00
2023-02-12T02:43:39.628Z,20.27
2023-02-12T02:46:14.900Z,19.33
2023-02-12T02:48:47.728Z,20.90
2023-02-12T02:51:20.280Z,21.57
2023-02-12T02:53:52.718Z,18.23
2023-02-12T02:56:23.544Z,18.77
2023-02-12T02:58:57.145Z,21.03
2023-02-12T03:01:31.266Z,19.53
2023-02-12T03:04:04.594Z,19.43
2023-02-12T03:06:40.260Z,20.60
2023-02-12T03:09:17.723Z,21.50
2023-02-12T03:11:46.192Z,22.37
2023-02-12T03:14:19.101Z,21.83
2023-02-12T03:16:57.002Z,21.33
2023-02-12T03:19:28.280Z,19.03
2023-02-12T03:22:01.320Z,22.00
2023-02-12T03:24:36.209Z,18.67
2023-02-12T03:27:08.530Z,17.50
2023-02-12T03:29:36.649Z,17.67
2023-02-12T03:32:23.651Z,17.20
2023-02-12T03:34:55.108Z,17.63
2023-02-12T03:37:30.358Z,17.50
2023-02-12T03:40:06.987Z,18.63
2023-02-12T03:42:39.920Z,17.47
2023-02-12T03:45:15.527Z,19.27
2023-02-12T03:47:49.682Z,18.03
2023-02-12T03:50:20.538Z,19.50
2023-02-12T03:52:50.877Z,18.33
2023-02-12T03:55:18.842Z,19.07
2023-02-12T03:57:51.520Z,17.50
2023-02-12T04:00:23.214Z,19.63
2023-02-12T04:02:53.160Z,18.53
2023-02-12T04:05:22.997Z,18.87
2023-02-12T04:07:52.470Z,18.17
2023-02-12T04:10:28.610Z,17.83
2023-02-12T04:13:08.268Z,20.73
2023-02-12T04:15:52.317Z,17.10
2023-02-12T04:18:28.559Z,19.20
2023-02-12T04:21:06.302Z,19.43
2023-02-12T04:23:46.382Z,17.73
2023-02-12T04:26:24.221Z,18.90
2023-02-12T04:29:06.230Z,18.90
2023-02-12T04:31:40.737Z,20.60
2023-02-12T04:34:14.095Z,18.93
2023-02-12T04:36:50.359Z,19.30
2023-02-12T04:39:24.672Z,19.43
2023-02-12T04:41:53.299Z,22.60
2023-02-12T04:44:26.276Z,22.13
2023-02-12T04:46:54.553Z,20.73
2023-02-12T04:49:24.049Z,18.17
2023-02-12T04:51:52.669Z,19.43
2023-02-12T04:54:22.958Z,21.43
2023-02-12T04:56:51.490Z,20.57
2023-02-12T04:59:19.491Z,21.67
2023-02-12T05:01:47.599Z,22.00
2023-02-12T05:04:17.181Z,19.93
2023-02-12T05:06:47.128Z,21.03
2023-02-12T05:09:17.146Z,18.17
2023-02-12T05:11:45.551Z,20.23
2023-02-12T05:14:13.673Z,18.63
2023-02-12T05:16:41.551Z,19.03
2023-02-12T05:19:09.869Z,18.47
2023-02-12T05:21:38.194Z,18.23
2023-02-12T05:24:07.865Z,21.03
2023-02-12T05:26:36.154Z,18.23
2023-02-12T05:29:04.589Z,17.30
2023-02-12T05:31:32.639Z,16.90
2023-02-12T05:34:00.554Z,15.80
2023-02-12T05:36:29.327Z,15.80
2023-02-12T05:38:59.930Z,16.57
2023-02-12T05:41:29.540Z,17.53
2023-02-12T05:43:57.650Z,16.40
2023-02-12T05:46:25.534Z,14.87
2023-02-12T05:48:53.693Z,15.37
2023-02-12T05:51:23.856Z,16.77
2023-02-12T05:53:53.408Z,18.33
2023-02-12T05:56:23.414Z,17.47
2023-02-12T05:58:55.808Z,22.37
2023-02-12T06:01:25.863Z,19.00
2023-02-12T06:03:53.777Z,19.63
2023-02-12T06:06:21.765Z,19.73
2023-02-12T06:08:50.234Z,18.73
2023-02-12T06:11:19.472Z,20.50
2023-02-12T06:13:47.688Z,18.87
2023-02-12T06:16:22.636Z,17.17
2023-02-12T06:18:50.981Z,21.67
2023-02-12T06:21:20.573Z,17.30
2023-02-12T06:23:48.969Z,18.27
2023-02-12T06:26:17.128Z,16.67
2023-02-12T06:28:45.576Z,17.20
2023-02-12T06:31:22.764Z,16.67
2023-02-12T06:33:51.886Z,20.47
2023-02-12T06:36:20.114Z,15.87
2023-02-12T06:38:48.682Z,16.33
2023-02-12T06:41:17.055Z,18.33
2023-02-12T06:43:45.566Z,16.57
2023-02-12T06:46:14.719Z,15.73
2023-02-12T06:48:44.364Z,16.90
2023-02-12T06:51:15.073Z,17.17
2023-02-12T06:53:43.757Z,17.33
2023-02-12T06:56:15.031Z,17.70
2023-02-12T06:58:44.749Z,17.17
2023-02-12T07:01:15.171Z,17.63
2023-02-12T07:03:46.010Z,16.60
2023-02-12T07:06:13.901Z,18.40
2023-02-12T07:08:41.975Z,15.97
2023-02-12T07:11:10.734Z,16.80
2023-02-12T07:13:38.738Z,15.57
2023-02-12T07:16:08.068Z,17.93
2023-02-12T07:18:36.991Z,15.97
2023-02-12T07:21:08.027Z,17.50
2023-02-12T07:23:37.053Z,16.23
2023-02-12T07:26:07.121Z,16.37
2023-02-12T07:28:35.935Z,18.83
2023-02-12T07:31:08.801Z,15.23
2023-02-12T07:33:37.319Z,18.90
2023-02-12T07:36:10.633Z,17.07
2023-02-12T07:38:40.011Z,16.80
2023-02-12T07:41:10.852Z,16.80
2023-02-12T07:43:39.203Z,16.37
2023-02-12T07:46:09.212Z,19.20
2023-02-12T07:48:37.230Z,20.03
2023-02-12T07:51:08.856Z,19.63
2023-02-12T07:53:37.069Z,19.30
2023-02-12T07:56:10.232Z,23.07
2023-02-12T07:58:38.652Z,20.20
2023-02-12T08:01:21.698Z,20.87
2023-02-12T08:03:51.379Z,19.43
2023-02-12T08:06:23.109Z,18.63
2023-02-12T08:08:52.610Z,21.97
2023-02-12T08:11:20.576Z,20.43
2023-02-12T08:13:48.982Z,20.53
2023-02-12T08:16:19.009Z,20.77
2023-02-12T08:18:47.221Z,22.13
2023-02-12T08:21:16.468Z,21.60
2023-02-12T08:23:46.360Z,23.07
2023-02-12T08:26:15.626Z,19.90
2023-02-12T08:28:46.072Z,21.90
2023-02-12T08:31:17.293Z,23.90
2023-02-12T08:33:46.727Z,19.53
2023-02-12T08:36:16.684Z,23.47
2023-02-12T08:38:47.156Z,21.90
2023-02-12T08:41:19.235Z,22.90
2023-02-12T08:43:49.339Z,23.53
2023-02-12T08:46:19.170Z,21.03
2023-02-12T08:48:47.339Z,23.30
2023-02-12T08:51:17.491Z,22.80
2023-02-12T08:53:48.363Z,21.63
2023-02-12T08:56:19.268Z,24.27
2023-02-12T08:58:48.030Z,23.77
2023-02-12T09:01:18.627Z,22.33
2023-02-12T09:03:47.416Z,26.00
2023-02-12T09:06:16.950Z,24.27
2023-02-12T09:08:49.584Z,24.87
2023-02-12T09:11:20.037Z,24.17
2023-02-12T09:13:48.797Z,23.33
2023-02-12T09:16:19.089Z,22.43
2023-02-12T09:18:46.960Z,25.57
2023-02-12T09:21:17.417Z,25.00
2023-02-12T09:23:47.039Z,24.00
2023-02-12T09:26:17.498Z,24.60
2023-02-12T09:28:45.670Z,26.07
2023-02-12T09:31:15.742Z,24.50
2023-02-12T09:33:44.318Z,25.03
2023-02-12T09:36:15.640Z,26.93
2023-02-12T09:38:44.611Z,21.17
2023-02-12T09:41:52.976Z,24.67
2023-02-12T09:44:27.242Z,22.63
2023-02-12T09:47:00.933Z,25.73
2023-02-12T09:49:50.819Z,24.13
2023-02-12T09:52:22.455Z,23.33
2023-02-12T09:54:51.410Z,24.27
2023-02-12T09:57:26.354Z,23.40
2023-02-12T09:59:58.245Z,25.13
2023-02-12T10:02:27.371Z,26.10
2023-02-12T10:05:01.739Z,24.13
2023-02-12T10:07:49.322Z,25.67
2023-02-12T10:10:26.985Z,26.00
2023-02-12T10:13:05.299Z,24.47
2023-02-12T10:15:41.180Z,25.27
2023-02-12T10:18:25.506Z,23.07
2023-02-12T10:21:05.148Z,29.80
2023-02-12T10:23:50.171Z,26.03
2023-02-12T10:26:27.007Z,22.77
2023-02-12T10:29:01.669Z,27.13
2023-02-12T10:31:36.044Z,21.93
2023-02-12T10:34:16.815Z,25.63
2023-02-12T10:36:47.089Z,23.00
2023-02-12T10:39:23.398Z,24.03
2023-02-12T10:41:58.320Z,26.90
2023-02-12T10:44:28.389Z,30.13
2023-02-12T10:46:56.624Z,26.17
2023-02-12T10:49:25.069Z,27.87
2023-02-12T10:52:06.415Z,29.47
2023-02-12T10:54:40.331Z,27.53
2023-02-12T10:57:17.048Z,27.60
2023-02-12T10:59:48.331Z,29.63
2023-02-12T11:02:23.234Z,27.33
2023-02-12T11:04:51.897Z,32.33
2023-02-12T11:07:20.932Z,25.77
2023-02-12T11:09:52.581Z,30.97
2023-02-12T11:12:27.202Z,33.13
2023-02-12T11:15:01.637Z,35.27
2023-02-12T11:17:35.079Z,27.00
2023-02-12T11:20:20.217Z,26.13
2023-02-12T11:22:53.916Z,30.00
2023-02-12T11:25:23.196Z,29.83
2023-02-12T11:28:03.501Z,30.00
2023-02-12T11:30:33.881Z,27.63
2023-02-12T11:33:19.006Z,26.93
2023-02-12T11:35:55.227Z,25.37
2023-02-12T11:38:29.013Z,26.80
2023-02-12T11:41:00.988Z,26.83
2023-02-12T11:43:32.070Z,26.23
2023-02-12T11:46:02.202Z,31.43
2023-02-12T11:48:34.767Z,28.17
2023-02-12T11:51:05.868Z,28.27
2023-02-12T11:53:36.022Z,30.37
2023-02-12T11:56:06.216Z,29.80
2023-02-12T11:58:34.455Z,26.57
2023-02-12T12:01:09.691Z,27.93
2023-02-12T12:03:44.411Z,28.63
2023-02-12T12:06:22.968Z,28.03
2023-02-12T12:08:58.599Z,27.43
2023-02-12T12:11:30.786Z,24.00
2023-02-12T12:14:03.864Z,25.47
2023-02-12T12:16:56.095Z,25.03
2023-02-12T12:19:51.553Z,24.27
2023-02-12T12:22:29.247Z,28.20
2023-02-12T12:25:06.467Z,28.27
2023-02-12T12:27:59.584Z,27.33
2023-02-12T12:30:39.917Z,27.83
2023-02-12T12:33:17.476Z,25.43
2023-02-12T12:35:55.893Z,28.97
2023-02-12T12:38:37.376Z,27.13
2023-02-12T12:41:17.161Z,25.87
2023-02-12T12:43:57.157Z,26.57
2023-02-12T12:46:36.089Z,27.67
2023-02-12T12:49:23.037Z,23.60
2023-02-12T12:52:26.647Z,27.77
2023-02-12T12:55:18.781Z,26.67
2023-02-12T12:58:01.125Z,28.00
2023-02-12T13:00:42.041Z,26.10
2023-02-12T13:03:42.695Z,25.70
2023-02-12T13:06:35.596Z,27.40
2023-02-12T13:09:25.902Z,25.37
2023-02-12T13:12:05.819Z,25.20
2023-02-12T13:14:45.452Z,33.17
2023-02-12T13:17:27.018Z,25.73
2023-02-12T13:20:06.807Z,28.07
2023-02-12T13:22:42.478Z,25.07
2023-02-12T13:25:23.355Z,25.43
2023-02-12T13:27:52.907Z,24.20
2023-02-12T13:30:24.690Z,22.93
2023-02-12T13:33:10.840Z,24.37
2023-02-12T13:35:44.768Z,24.70
2023-02-12T13:38:20.211Z,25.63
2023-02-12T13:40:49.832Z,27.27
2023-02-12T13:43:34.375Z,23.93
2023-02-12T13:46:10.063Z,25.20
2023-02-12T13:48:51.456Z,25.90
2023-02-12T13:51:27.258Z,24.30
2023-02-12T13:54:14.825Z,26.03
2023-02-12T13:56:45.260Z,27.43
2023-02-12T13:59:40.866Z,26.87
2023-02-12T14:02:28.677Z,24.90
2023-02-12T14:04:59.963Z,28.60
2023-02-12T14:07:43.721Z,25.50
2023-02-12T14:10:23.692Z,27.93
2023-02-12T14:12:52.518Z,27.80
2023-02-12T14:15:32.376Z,25.40
2023-02-12T14:18:28.871Z,25.67
2023-02-12T14:21:35.451Z,30.73
2023-02-12T14:24:36.898Z,26.20
2023-02-12T14:27:08.039Z,29.60
2023-02-12T14:29:37.143Z,29.27
2023-02-12T14:32:45.705Z,28.13
2023-02-12T14:35:33.069Z,29.83
2023-02-12T14:38:01.895Z,29.87
2023-02-12T14:40:47.978Z,29.00
2023-02-12T14:43:30.875Z,28.23
2023-02-12T14:46:00.697Z,30.47
2023-02-12T14:48:48.829Z,32.10
2023-02-12T14:51:22.720Z,26.20
2023-02-12T14:53:54.704Z,31.87
2023-02-12T14:56:23.666Z,31.17
2023-02-12T14:58:57.027Z,30.80
2023-02-12T15:01:31.946Z,26.83
2023-02-12T15:04:03.972Z,33.47
2023-02-12T15:06:40.746Z,32.87
2023-02-12T15:09:12.960Z,31.43
2023-02-12T15:11:46.355Z,36.20
2023-02-12T15:14:20.150Z,36.53
2023-02-12T15:16:59.869Z,33.60
2023-02-12T15:19:40.702Z,35.00
2023-02-12T15:22:41.585Z,32.23
2023-02-12T15:25:16.703Z,33.40
2023-02-12T15:27:45.680Z,36.00
2023-02-12T15:30:25.925Z,33.03
2023-02-12T15:32:56.723Z,33.03
2023-02-12T15:35:28.537Z,32.37
2023-02-12T15:38:00.166Z,35.17
2023-02-12T15:40:28.447Z,36.40
2023-02-12T15:42:58.892Z,34.40
2023-02-12T15:45:29.709Z,35.83
2023-02-12T15:48:19.039Z,36.60
2023-02-12T15:50:51.027Z,33.00
2023-02-12T15:53:19.502Z,36.10
2023-02-12T15:55:49.618Z,34.63
2023-02-12T15:58:24.382Z,38.83
2023-02-12T16:00:55.039Z,37.80
2023-02-12T16:03:25.388Z,34.37
2023-02-12T16:05:56.814Z,36.00
2023-02-12T16:08:26.235Z,35.77
2023-02-12T16:10:56.909Z,38.57
2023-02-12T16:13:31.362Z,38.87
2023-02-12T16:16:15.617Z,38.27
2023-02-12T16:18:44.843Z,41.17
2023-02-12T16:21:16.098Z,37.27
2023-02-12T16:23:44.508Z,40.60
2023-02-12T16:26:19.523Z,40.80
2023-02-12T16:28:49.405Z,40.37
2023-02-12T16:31:19.211Z,49.13
2023-02-12T16:33:49.702Z,44.40
2023-02-12T16:36:31.046Z,48.00
2023-02-12T16:39:01.507Z,42.27
2023-02-12T16:41:31.814Z,45.90
2023-02-12T16:44:29.402Z,56.07
2023-02-12T16:47:01.572Z,48.43
2023-02-12T16:49:29.487Z,46.90
2023-02-12T16:52:32.426Z,46.70
2023-02-12T16:55:00.399Z,42.23
2023-02-12T16:57:28.342Z,43.23
2023-02-12T16:59:56.427Z,45.00
2023-02-12T17:02:25.856Z,45.37
2023-02-12T17:04:56.502Z,47.73
2023-02-12T17:07:29.126Z,49.67
2023-02-12T17:09:57.069Z,52.63
2023-02-12T17:12:25.471Z,50.10
2023-02-12T17:14:54.843Z,56.07
2023-02-12T17:17:23.066Z,55.60
2023-02-12T17:19:53.308Z,53.57
2023-02-12T17:22:24.378Z,56.43
2023-02-12T17:24:53.489Z,59.90
2023-02-12T17:27:21.999Z,63.40
2023-02-12T17:29:52.973Z,55.53
2023-02-12T17:32:20.930Z,53.17
2023-02-12T17:34:49.444Z,54.10
2023-02-12T17:37:19.103Z,53.93
2023-02-12T17:39:47.258Z,52.33
2023-02-12T17:42:15.290Z,57.23
2023-02-12T17:44:43.219Z,52.47
2023-02-12T17:47:11.289Z,50.93
2023-02-12T17:49:40.390Z,53.30
2023-02-12T17:52:08.209Z,54.43
2023-02-12T17:54:38.071Z,56.90
2023-02-12T17:57:06.013Z,53.83
2023-02-12T17:59:34.154Z,54.20
2023-02-12T18:02:02.759Z,55.27
2023-02-12T18:04:34.131Z,52.60
2023-02-12T18:07:05.053Z,51.03
2023-02-12T18:09:34.545Z,53.10
2023-02-12T18:12:04.184Z,55.30
2023-02-12T18:14:33.644Z,54.57
2023-02-12T18:17:01.729Z,57.07
2023-02-12T18:19:30.590Z,55.33
2023-02-12T18:21:58.645Z,52.07
2023-02-12T18:24:27.870Z,48.97
2023-02-12T18:26:57.454Z,57.43
2023-02-12T18:29:27.077Z,55.50
2023-02-12T18:31:55.820Z,56.60
2023-02-12T18:34:24.166Z,51.67
2023-02-12T18:36:52.472Z,51.70
2023-02-12T18:39:20.610Z,61.37
2023-02-12T18:41:48.828Z,55.33
2023-02-12T18:44:17.144Z,52.07
2023-02-12T18:46:50.137Z,54.63
2023-02-12T18:49:18.039Z,52.20
2023-02-12T18:51:46.012Z,54.93
2023-02-12T18:54:14.859Z,54.13
2023-02-12T18:56:46.728Z,65.17
2023-02-12T18:59:16.679Z,69.40
2023-02-12T19:01:46.446Z,56.87
2023-02-12T19:04:17.191Z,52.80
2023-02-12T19:06:47.462Z,51.77
2023-02-12T19:09:17.289Z,53.87
2023-02-12T19:11:46.748Z,51.70
2023-02-12T19:14:17.163Z,52.33
2023-02-12T19:16:45.721Z,53.87
2023-02-12T19:19:16.971Z,54.10
2023-02-12T19:21:44.943Z,53.60
2023-02-12T19:24:14.614Z,53.60
2023-02-12T19:26:44.547Z,58.20
2023-02-12T19:29:13.149Z,61.43
2023-02-12T19:31:45.513Z,55.73
2023-02-12T19:34:18.113Z,54.67
2023-02-12T19:36:46.854Z,56.57
2023-02-12T19:39:22.233Z,52.03
2023-02-12T19:41:50.857Z,55.10
2023-02-12T19:44:20.379Z,56.63
2023-02-12T19:46:50.877Z,53.30
2023-02-12T19:49:24.250Z,53.33
2023-02-12T19:51:53.475Z,54.63
2023-02-12T19:54:24.835Z,55.07
2023-02-12T19:56:55.406Z,56.30
2023-02-12T19:59:25.275Z,55.50
2023-02-12T20:01:53.940Z,53.67
2023-02-12T20:04:25.476Z,64.63
2023-02-12T20:06:53.885Z,53.83
2023-02-12T20:09:23.239Z,54.77
2023-02-12T20:11:51.821Z,54.43
2023-02-12T20:14:23.025Z,56.27
2023-02-12T20:16:52.137Z,54.10
2023-02-12T20:19:22.330Z,54.90
2023-02-12T20:21:55.325Z,54.57
2023-02-12T20:24:24.421Z,55.93
2023-02-12T20:26:52.649Z,56.47
2023-02-12T20:29:21.011Z,55.90
2023-02-12T20:31:49.361Z,57.33
2023-02-12T20:34:19.639Z,57.53
2023-02-12T20:36:48.391Z,60.03
2023-02-12T20:39:20.845Z,58.87
2023-02-12T20:41:49.489Z,61.03
2023-02-12T20:44:21.774Z,59.20
2023-02-12T20:46:55.634Z,55.30
2023-02-12T20:49:25.251Z,58.73
2023-02-12T20:51:53.330Z,56.53
2023-02-12T20:54:23.982Z,56.97
2023-02-12T20:56:52.050Z,57.63
2023-02-12T20:59:20.454Z,52.97
2023-02-12T21:01:49.224Z,56.67
2023-02-12T21:04:18.939Z,54.57
2023-02-12T21:06:48.353Z,57.87
2023-02-12T21:09:16.918Z,60.87
2023-02-12T21:11:46.428Z,65.03
2023-02-12T21:14:24.146Z,56.43
2023-02-12T21:16:53.794Z,57.47
2023-02-12T21:19:21.993Z,57.77
2023-02-12T21:21:49.955Z,54.50
2023-02-12T21:24:20.450Z,55.70
2023-02-12T21:26:50.433Z,58.13
2023-02-12T21:29:19.304Z,54.57
2023-02-12T21:31:48.819Z,55.50
2023-02-12T21:34:18.772Z,54.40
2023-02-12T21:36:48.006Z,61.07
2023-02-12T21:39:24.316Z,54.37
2023-02-12T21:41:55.385Z,57.07
2023-02-12T21:44:25.244Z,55.87
2023-02-12T21:46:53.371Z,58.37
2023-02-12T21:49:26.574Z,58.23
2023-02-12T21:51:56.817Z,59.13
2023-02-12T21:54:25.592Z,57.17
2023-02-12T21:56:54.968Z,60.83
2023-02-12T21:59:24.773Z,59.60
2023-02-12T22:01:55.474Z,59.60
2023-02-12T22:04:23.502Z,60.13
2023-02-12T22:06:52.785Z,59.07
2023-02-12T22:09:22.733Z,62.20
2023-02-12T22:11:52.326Z,61.40
2023-02-12T22:14:22.859Z,62.70
2023-02-12T22:16:51.521Z,63.97
2023-02-12T22:19:19.462Z,61.27
2023-02-12T22:21:47.386Z,67.73
2023-02-12T22:24:17.169Z,65.10
2023-02-12T22:26:45.874Z,68.07
2023-02-12T22:29:15.435Z,64.93
2023-02-12T22:31:46.515Z,66.47
2023-02-12T22:34:16.741Z,67.10
2023-02-12T22:36:45.853Z,69.50
2023-02-12T22:39:14.376Z,69.10
2023-02-12T22:41:43.134Z,69.40
2023-02-12T22:44:12.574Z,68.50
2023-02-12T22:46:41.029Z,67.77
2023-02-12T22:49:10.384Z,63.73
2023-02-12T22:51:39.638Z,66.43
2023-02-12T22:54:08.679Z,69.77
2023-02-12T22:56:36.525Z,64.73
2023-02-12T22:59:05.024Z,65.70
2023-02-12T23:01:34.267Z,66.97
2023-02-12T23:04:03.414Z,64.73
2023-02-12T23:06:32.877Z,69.53
2023-02-12T23:09:03.057Z,67.07
2023-02-12T23:11:32.645Z,67.37
2023-02-12T23:14:01.065Z,72.73
2023-02-12T23:16:29.559Z,64.10
2023-02-12T23:18:58.363Z,70.47
2023-02-12T23:21:27.110Z,66.57
2023-02-12T23:23:57.043Z,72.53
2023-02-12T23:26:24.879Z,67.30
2023-02-12T23:28:52.807Z,65.07
2023-02-12T23:31:21.064Z,68.23
2023-02-12T23:33:49.223Z,68.00
2023-02-12T23:36:17.086Z,68.70
2023-02-12T23:38:44.941Z,66.90
2023-02-12T23:41:14.289Z,66.83
2023-02-12T23:43:42.160Z,64.17
2023-02-12T23:46:10.270Z,61.57
2023-02-12T23:48:38.226Z,69.10
2023-02-12T23:51:06.188Z,64.97
2023-02-12T23:53:34.105Z,65.30
2023-02-12T23:56:02.034Z,65.83
2023-02-12T23:58:31.260Z,63.00
